createdAt,value
2023-02-23T00:01:24.334Z,63.55
2023-02-23T00:03:51.461Z,63.54
2023-02-23T00:06:19.307Z,63.91
2023-02-23T00:08:47.827Z,63.25
2023-02-23T00:11:16.140Z,63.62
2023-02-23T00:13:46.156Z,64.40
2023-02-23T00:16:15.688Z,63.86
2023-02-23T00:18:50.985Z,64.04
2023-02-23T00:21:23.373Z,63.38
2023-02-23T00:23:55.117Z,63.86
2023-02-23T00:26:24.276Z,64.48
2023-02-23T00:28:51.165Z,64.36
2023-02-23T00:31:18.184Z,64.48
2023-02-23T00:33:45.160Z,64.13
2023-02-23T00:36:13.844Z,64.38
2023-02-23T00:38:41.668Z,64.59
2023-02-23T00:41:14.509Z,64.45
2023-02-23T00:43:47.673Z,64.57
2023-02-23T00:46:18.800Z,64.62
2023-02-23T00:48:45.840Z,65.24
2023-02-23T00:51:12.776Z,64.85
2023-02-23T00:53:40.515Z,64.74
2023-02-23T00:56:08.553Z,65.03
2023-02-23T00:58:36.626Z,64.66
2023-02-23T01:01:09.433Z,64.91
2023-02-23T01:03:36.516Z,65.09
2023-02-23T01:06:05.380Z,64.47
2023-02-23T01:08:36.651Z,64.85
2023-02-23T01:11:14.447Z,64.78
2023-02-23T01:13:43.392Z,65.20
2023-02-23T01:16:13.126Z,64.97
2023-02-23T01:18:41.020Z,64.92
2023-02-23T01:21:16.355Z,64.80
2023-02-23T01:23:43.016Z,64.75
2023-02-23T01:26:24.483Z,64.82
2023-02-23T01:28:52.545Z,64.41
2023-02-23T01:31:20.729Z,64.83
2023-02-23T01:33:47.731Z,65.76
2023-02-23T01:36:14.370Z,64.87
2023-02-23T01:38:41.243Z,65.31
2023-02-23T01:41:09.114Z,65.72
2023-02-23T01:43:37.064Z,65.23
2023-02-23T01:46:03.981Z,66.01
2023-02-23T01:48:36.616Z,65.33
2023-02-23T01:51:08.594Z,66.08
2023-02-23T01:53:38.212Z,66.01
2023-02-23T01:56:11.494Z,65.88
2023-02-23T01:58:45.751Z,66.49
2023-02-23T02:01:12.905Z,65.57
2023-02-23T02:03:46.270Z,66.29
2023-02-23T02:06:15.682Z,65.78
2023-02-23T02:08:46.866Z,65.45
2023-02-23T02:11:33.549Z,65.32
2023-02-23T02:14:13.176Z,65.75
2023-02-23T02:17:10.775Z,65.75
2023-02-23T02:20:14.292Z,66.07
2023-02-23T02:23:09.679Z,65.62
2023-02-23T02:25:49.117Z,65.97
2023-02-23T02:28:44.966Z,66.22
2023-02-23T02:31:46.002Z,65.97
2023-02-23T02:34:28.968Z,66.47
2023-02-23T02:37:07.534Z,65.79
2023-02-23T02:40:17.421Z,65.67
2023-02-23T02:42:57.524Z,66.50
2023-02-23T02:45:50.162Z,66.67
2023-02-23T02:48:22.890Z,66.27
2023-02-23T02:51:09.436Z,66.62
2023-02-23T02:53:51.453Z,66.40
2023-02-23T02:56:22.658Z,66.46
2023-02-23T02:58:50.312Z,66.92
2023-02-23T03:01:36.706Z,66.94
2023-02-23T03:04:38.634Z,66.38
2023-02-23T03:07:38.993Z,66.95
2023-02-23T03:10:34.348Z,66.48
2023-02-23T03:13:30.609Z,66.77
2023-02-23T03:16:24.219Z,66.75
2023-02-23T03:19:32.754Z,66.56
2023-02-23T03:22:21.467Z,66.64
2023-02-23T03:25:31.205Z,66.69
2023-02-23T03:28:28.394Z,66.39
2023-02-23T03:31:37.306Z,67.19
2023-02-23T03:34:32.784Z,66.66
2023-02-23T03:37:40.899Z,66.87
2023-02-23T03:40:36.364Z,67.10
2023-02-23T03:43:26.454Z,67.08
2023-02-23T03:46:14.641Z,66.73
2023-02-23T03:49:00.367Z,67.32
2023-02-23T03:51:45.646Z,67.14
2023-02-23T03:54:42.061Z,66.98
2023-02-23T03:57:28.757Z,67.50
2023-02-23T04:00:17.091Z,67.66
2023-02-23T04:03:06.409Z,67.71
2023-02-23T04:05:54.055Z,67.18
2023-02-23T04:08:40.277Z,67.93
2023-02-23T04:11:53.792Z,68.12
2023-02-23T04:14:26.919Z,67.55
2023-02-23T04:16:53.816Z,67.60
2023-02-23T04:19:20.307Z,67.63
2023-02-23T04:21:46.825Z,67.76
2023-02-23T04:24:13.352Z,67.58
2023-02-23T04:26:39.884Z,67.53
2023-02-23T04:29:06.422Z,67.59
2023-02-23T04:31:32.964Z,67.40
2023-02-23T04:33:59.484Z,67.63
2023-02-23T04:36:26.844Z,67.91
2023-02-23T04:38:53.340Z,67.54
2023-02-23T04:41:20.212Z,67.70
2023-02-23T04:43:46.802Z,67.87
2023-02-23T04:46:13.361Z,67.63
2023-02-23T04:48:39.850Z,67.54
2023-02-23T04:51:06.500Z,67.71
2023-02-23T04:53:32.987Z,68.27
2023-02-23T04:55:59.467Z,68.21
2023-02-23T04:58:27.082Z,68.31
2023-02-23T05:00:56.153Z,68.30
2023-02-23T05:03:22.679Z,68.48
2023-02-23T05:05:49.166Z,68.08
2023-02-23T05:08:15.726Z,68.39
2023-02-23T05:10:42.277Z,68.18
2023-02-23T05:13:08.820Z,68.34
2023-02-23T05:15:35.422Z,67.92
2023-02-23T05:18:01.956Z,68.10
2023-02-23T05:20:28.446Z,68.24
2023-02-23T05:22:55.157Z,68.11
2023-02-23T05:25:21.725Z,68.47
2023-02-23T05:27:48.306Z,68.13
2023-02-23T05:30:15.519Z,67.73
2023-02-23T05:32:42.167Z,68.37
2023-02-23T05:35:09.184Z,68.64
2023-02-23T05:37:35.853Z,68.55
2023-02-23T05:40:02.472Z,68.40
2023-02-23T05:42:28.965Z,68.39
2023-02-23T05:44:55.553Z,67.92
2023-02-23T05:47:22.059Z,68.41
2023-02-23T05:49:48.626Z,68.52
2023-02-23T05:52:15.094Z,68.48
2023-02-23T05:54:41.595Z,68.62
2023-02-23T05:57:08.334Z,68.94
2023-02-23T05:59:34.820Z,69.11
2023-02-23T06:02:01.335Z,68.94
2023-02-23T06:04:27.834Z,68.56
2023-02-23T06:06:54.355Z,69.00
2023-02-23T06:09:20.854Z,68.78
2023-02-23T06:11:47.362Z,68.50
2023-02-23T06:14:13.958Z,68.60
2023-02-23T06:16:40.530Z,68.86
2023-02-23T06:19:19.058Z,68.58
2023-02-23T06:21:46.778Z,68.58
2023-02-23T06:24:13.291Z,68.59
2023-02-23T06:26:39.834Z,68.56
2023-02-23T06:29:06.337Z,68.60
2023-02-23T06:31:32.850Z,68.27
2023-02-23T06:33:59.377Z,68.67
2023-02-23T06:36:25.913Z,68.77
2023-02-23T06:38:56.625Z,68.50
2023-02-23T06:41:23.174Z,68.70
2023-02-23T06:43:49.685Z,68.47
2023-02-23T06:46:16.236Z,68.88
2023-02-23T06:48:42.800Z,68.56
2023-02-23T06:51:10.018Z,68.40
2023-02-23T06:53:36.875Z,68.22
2023-02-23T06:56:04.001Z,68.20
2023-02-23T06:58:30.939Z,68.61
2023-02-23T07:00:58.594Z,68.51
2023-02-23T07:03:25.939Z,68.21
2023-02-23T07:05:53.840Z,68.25
2023-02-23T07:08:20.367Z,68.34
2023-02-23T07:10:46.840Z,68.33
2023-02-23T07:13:13.574Z,68.21
2023-02-23T07:15:41.612Z,68.00
2023-02-23T07:18:08.329Z,67.96
2023-02-23T07:20:35.236Z,68.10
2023-02-23T07:23:02.101Z,68.02
2023-02-23T07:25:29.741Z,68.19
2023-02-23T07:27:56.433Z,67.92
2023-02-23T07:30:25.778Z,68.41
2023-02-23T07:32:53.787Z,68.28
2023-02-23T07:35:20.616Z,67.84
2023-02-23T07:37:47.151Z,67.75
2023-02-23T07:40:14.078Z,67.89
2023-02-23T07:42:40.571Z,67.63
2023-02-23T07:45:08.006Z,67.28
2023-02-23T07:47:34.870Z,67.35
2023-02-23T07:50:03.492Z,66.76
2023-02-23T07:52:30.044Z,67.35
2023-02-23T07:54:56.916Z,66.93
2023-02-23T07:57:24.971Z,66.71
2023-02-23T07:59:51.775Z,66.39
2023-02-23T08:02:18.413Z,66.52
2023-02-23T08:04:44.992Z,66.07
2023-02-23T08:07:11.621Z,65.72
2023-02-23T08:09:38.163Z,65.84
2023-02-23T08:12:04.738Z,65.20
2023-02-23T08:14:31.360Z,65.58
2023-02-23T08:16:57.908Z,65.26
2023-02-23T08:19:24.435Z,65.33
2023-02-23T08:21:51.074Z,65.14
2023-02-23T08:24:17.685Z,64.90
2023-02-23T08:26:44.194Z,64.65
2023-02-23T08:29:10.951Z,64.54
2023-02-23T08:31:37.588Z,64.27
2023-02-23T08:34:04.226Z,64.67
2023-02-23T08:36:30.705Z,64.34
2023-02-23T08:38:58.062Z,64.41
2023-02-23T08:41:25.564Z,63.82
2023-02-23T08:43:52.078Z,63.72
2023-02-23T08:46:20.344Z,64.24
2023-02-23T08:48:47.111Z,63.49
2023-02-23T08:51:14.670Z,63.91
2023-02-23T08:53:41.255Z,63.41
2023-02-23T08:56:08.407Z,64.31
2023-02-23T08:58:36.385Z,64.16
2023-02-23T09:01:03.561Z,64.27
2023-02-23T09:03:31.904Z,63.80
2023-02-23T09:06:07.363Z,63.82
2023-02-23T09:08:33.936Z,63.73
2023-02-23T09:11:00.550Z,63.81
2023-02-23T09:13:27.078Z,63.80
2023-02-23T09:15:54.718Z,63.46
2023-02-23T09:18:23.992Z,63.73
2023-02-23T09:20:50.664Z,63.19
2023-02-23T09:23:17.156Z,62.64
2023-02-23T09:25:44.326Z,63.35
2023-02-23T09:28:18.530Z,63.19
2023-02-23T09:30:46.673Z,62.79
2023-02-23T09:33:13.432Z,62.63
2023-02-23T09:35:40.643Z,62.06
2023-02-23T09:38:07.686Z,62.17
2023-02-23T09:40:46.573Z,62.44
2023-02-23T09:43:37.364Z,61.54
2023-02-23T09:46:14.445Z,61.32
2023-02-23T09:48:41.426Z,60.33
2023-02-23T09:51:09.029Z,60.43
2023-02-23T09:53:45.596Z,60.53
2023-02-23T09:56:30.179Z,60.02
2023-02-23T09:58:56.709Z,59.36
2023-02-23T10:01:47.821Z,59.10
2023-02-23T10:04:32.794Z,58.59
2023-02-23T10:07:04.278Z,58.34
2023-02-23T10:09:44.387Z,57.95
2023-02-23T10:12:22.788Z,57.23
2023-02-23T10:15:14.685Z,57.73
2023-02-23T10:18:18.483Z,57.85
2023-02-23T10:21:01.316Z,57.33
2023-02-23T10:23:32.846Z,57.04
2023-02-23T10:26:01.044Z,56.36
2023-02-23T10:28:28.564Z,56.49
2023-02-23T10:30:55.732Z,56.69
2023-02-23T10:33:26.977Z,56.40
2023-02-23T10:36:13.498Z,55.70
2023-02-23T10:38:40.691Z,55.01
2023-02-23T10:41:07.532Z,54.85
2023-02-23T10:43:34.066Z,54.39
2023-02-23T10:46:00.550Z,54.71
2023-02-23T10:48:30.843Z,54.98
2023-02-23T10:51:03.129Z,54.53
2023-02-23T10:53:36.551Z,53.85
2023-02-23T10:56:08.191Z,54.06
2023-02-23T10:58:56.137Z,54.57
2023-02-23T11:01:41.907Z,54.58
2023-02-23T11:04:16.736Z,54.55
2023-02-23T11:06:43.658Z,54.95
2023-02-23T11:09:44.482Z,53.83
2023-02-23T11:12:24.228Z,54.09
2023-02-23T11:14:52.671Z,53.42
2023-02-23T11:17:28.782Z,53.57
2023-02-23T11:20:05.675Z,53.97
2023-02-23T11:22:35.534Z,53.37
2023-02-23T11:25:06.765Z,53.78
2023-02-23T11:27:33.588Z,53.54
2023-02-23T11:30:06.218Z,53.86
2023-02-23T11:32:38.801Z,53.81
2023-02-23T11:35:20.732Z,54.08
2023-02-23T11:37:47.849Z,53.48
2023-02-23T11:40:28.585Z,53.41
2023-02-23T11:42:57.522Z,53.12
2023-02-23T11:45:27.420Z,53.50
2023-02-23T11:48:00.145Z,53.59
2023-02-23T11:50:35.544Z,53.33
2023-02-23T11:53:07.224Z,53.86
2023-02-23T11:55:36.811Z,53.98
2023-02-23T11:58:28.125Z,53.57
2023-02-23T12:00:59.270Z,53.76
2023-02-23T12:03:27.703Z,53.45
2023-02-23T12:05:57.691Z,53.88
2023-02-23T12:08:33.977Z,53.91
2023-02-23T12:11:04.349Z,53.96
2023-02-23T12:14:09.441Z,54.13
2023-02-23T12:16:43.231Z,53.85
2023-02-23T12:19:31.041Z,53.96
2023-02-23T12:22:18.975Z,54.06
2023-02-23T12:24:50.618Z,54.27
2023-02-23T12:27:27.848Z,53.82
2023-02-23T12:30:08.998Z,53.49
2023-02-23T12:32:45.578Z,54.04
2023-02-23T12:35:17.091Z,53.61
2023-02-23T12:37:48.284Z,54.31
2023-02-23T12:40:22.652Z,54.01
2023-02-23T12:42:59.655Z,53.99
2023-02-23T12:45:34.150Z,53.95
2023-02-23T12:48:39.575Z,54.21
2023-02-23T12:51:19.232Z,54.30
2023-02-23T12:53:45.745Z,54.83
2023-02-23T12:56:15.188Z,55.04
2023-02-23T12:58:59.508Z,55.41
2023-02-23T13:01:33.644Z,55.13
2023-02-23T13:04:08.949Z,55.03
2023-02-23T13:07:13.856Z,55.17
2023-02-23T13:09:44.412Z,55.25
2023-02-23T13:12:23.104Z,55.45
2023-02-23T13:14:58.892Z,55.44
2023-02-23T13:17:28.164Z,55.27
2023-02-23T13:19:59.798Z,55.42
2023-02-23T13:22:33.623Z,55.73
2023-02-23T13:25:05.134Z,56.15
2023-02-23T13:27:42.758Z,56.65
2023-02-23T13:30:11.237Z,56.41
2023-02-23T13:32:39.180Z,56.59
2023-02-23T13:35:09.384Z,56.98
2023-02-23T13:37:43.143Z,57.01
2023-02-23T13:40:19.426Z,57.49
2023-02-23T13:43:01.114Z,57.26
2023-02-23T13:45:30.351Z,57.79
2023-02-23T13:48:19.227Z,58.15
2023-02-23T13:50:54.494Z,58.12
2023-02-23T13:53:42.364Z,58.39
2023-02-23T13:56:11.183Z,58.53
2023-02-23T13:58:38.502Z,58.92
2023-02-23T14:01:11.777Z,59.11
2023-02-23T14:03:44.187Z,59.60
2023-02-23T14:06:13.371Z,60.14
2023-02-23T14:08:42.070Z,60.34
2023-02-23T14:11:08.690Z,60.49
2023-02-23T14:13:41.626Z,60.61
2023-02-23T14:16:19.512Z,60.77
2023-02-23T14:19:12.468Z,60.86
2023-02-23T14:21:57.468Z,60.95
2023-02-23T14:24:27.838Z,61.50
2023-02-23T14:27:30.610Z,60.67
2023-02-23T14:30:10.895Z,61.59
2023-02-23T14:32:45.331Z,61.74
2023-02-23T14:35:33.839Z,61.60
2023-02-23T14:38:01.600Z,61.95
2023-02-23T14:40:34.910Z,62.39
2023-02-23T14:43:02.783Z,61.77
2023-02-23T14:45:32.034Z,62.33
2023-02-23T14:48:12.820Z,62.60
2023-02-23T14:50:41.278Z,63.11
2023-02-23T14:53:16.776Z,62.90
2023-02-23T14:55:45.496Z,63.24
2023-02-23T14:58:24.293Z,62.67
2023-02-23T15:00:52.057Z,63.80
2023-02-23T15:03:18.843Z,63.72
2023-02-23T15:05:54.549Z,63.91
2023-02-23T15:08:27.215Z,64.35
2023-02-23T15:11:07.470Z,64.06
2023-02-23T15:13:40.010Z,63.70
2023-02-23T15:16:09.213Z,64.19
2023-02-23T15:19:31.994Z,63.81
2023-02-23T15:21:59.593Z,64.28
2023-02-23T15:24:28.464Z,64.51
2023-02-23T15:26:56.274Z,64.78
2023-02-23T15:29:33.583Z,64.89
2023-02-23T15:32:22.121Z,64.83
2023-02-23T15:34:48.940Z,65.05
2023-02-23T15:37:36.560Z,64.67
2023-02-23T15:40:11.943Z,65.03
2023-02-23T15:42:44.021Z,65.70
2023-02-23T15:45:44.223Z,65.31
2023-02-23T15:48:18.483Z,65.70
2023-02-23T15:50:50.208Z,66.02
2023-02-23T15:53:39.071Z,65.62
2023-02-23T15:56:27.477Z,65.81
2023-02-23T15:58:58.470Z,66.02
2023-02-23T16:01:25.947Z,65.48
2023-02-23T16:04:06.493Z,65.64
2023-02-23T16:06:36.111Z,66.18
2023-02-23T16:09:19.851Z,65.99
2023-02-23T16:12:03.376Z,66.02
2023-02-23T16:14:44.205Z,66.14
2023-02-23T16:17:31.262Z,66.54
2023-02-23T16:20:10.947Z,66.65
2023-02-23T16:22:39.831Z,66.48
2023-02-23T16:25:11.863Z,66.33
2023-02-23T16:27:38.890Z,67.02
2023-02-23T16:30:24.198Z,66.27
2023-02-23T16:33:03.851Z,66.69
2023-02-23T16:35:37.167Z,67.30
2023-02-23T16:38:10.254Z,67.02
2023-02-23T16:40:37.051Z,66.95
2023-02-23T16:43:03.596Z,67.42
2023-02-23T16:45:30.377Z,67.67
2023-02-23T16:48:02.088Z,67.62
2023-02-23T16:50:29.539Z,68.03
2023-02-23T16:52:56.120Z,67.96
2023-02-23T16:55:28.076Z,68.33
2023-02-23T16:57:57.075Z,68.07
2023-02-23T17:00:28.740Z,67.91
2023-02-23T17:02:55.899Z,68.31
2023-02-23T17:05:26.291Z,68.79
2023-02-23T17:07:53.410Z,68.43
2023-02-23T17:10:26.100Z,68.71
2023-02-23T17:12:54.192Z,68.92
2023-02-23T17:15:21.715Z,69.10
2023-02-23T17:17:48.311Z,69.13
2023-02-23T17:20:21.660Z,69.43
2023-02-23T17:22:49.603Z,69.53
2023-02-23T17:25:17.022Z,68.85
2023-02-23T17:27:43.615Z,69.48
2023-02-23T17:30:11.707Z,69.57
2023-02-23T17:32:38.649Z,69.87
2023-02-23T17:35:05.613Z,69.91
2023-02-23T17:37:32.119Z,70.11
2023-02-23T17:39:58.694Z,69.97
2023-02-23T17:42:33.841Z,69.65
2023-02-23T17:45:02.114Z,70.44
2023-02-23T17:47:32.406Z,69.88
2023-02-23T17:49:59.800Z,70.41
2023-02-23T17:52:27.123Z,70.40
2023-02-23T17:54:54.619Z,70.50
2023-02-23T17:57:22.153Z,70.41
2023-02-23T17:59:48.713Z,70.43
2023-02-23T18:02:18.270Z,70.33
2023-02-23T18:04:44.836Z,70.80
2023-02-23T18:07:11.432Z,70.75
2023-02-23T18:09:38.097Z,71.19
2023-02-23T18:12:04.695Z,71.36
2023-02-23T18:14:31.442Z,71.08
2023-02-23T18:16:58.466Z,70.83
2023-02-23T18:19:25.263Z,70.94
2023-02-23T18:21:55.960Z,71.65
2023-02-23T18:24:32.278Z,71.26
2023-02-23T18:27:02.497Z,71.79
2023-02-23T18:29:31.990Z,71.39
2023-02-23T18:31:59.415Z,71.76
2023-02-23T18:34:27.510Z,71.89
2023-02-23T18:36:54.654Z,71.62
2023-02-23T18:39:21.188Z,71.98
2023-02-23T18:41:49.136Z,72.40
2023-02-23T18:44:17.524Z,72.07
2023-02-23T18:46:46.102Z,72.69
2023-02-23T18:49:16.964Z,72.46
2023-02-23T18:51:43.623Z,72.56
2023-02-23T18:54:16.679Z,72.46
2023-02-23T18:56:46.700Z,72.62
2023-02-23T18:59:13.333Z,72.78
2023-02-23T19:01:39.807Z,72.62
2023-02-23T19:04:07.692Z,72.94
2023-02-23T19:06:35.265Z,72.73
2023-02-23T19:09:04.128Z,72.63
2023-02-23T19:11:32.375Z,72.36
2023-02-23T19:14:01.527Z,72.71
2023-02-23T19:16:30.992Z,72.73
2023-02-23T19:18:58.901Z,72.76
2023-02-23T19:21:25.898Z,72.67
2023-02-23T19:23:52.981Z,72.64
2023-02-23T19:26:21.343Z,72.95
2023-02-23T19:28:48.178Z,72.60
2023-02-23T19:31:19.491Z,72.91
2023-02-23T19:33:48.073Z,73.08
2023-02-23T19:36:16.085Z,73.48
2023-02-23T19:38:42.922Z,73.04
2023-02-23T19:41:13.322Z,73.09
2023-02-23T19:43:39.890Z,73.14
2023-02-23T19:46:11.620Z,72.99
2023-02-23T19:48:38.308Z,73.14
2023-02-23T19:51:05.229Z,73.28
2023-02-23T19:53:32.351Z,73.46
2023-02-23T19:56:00.157Z,73.49
2023-02-23T19:58:27.501Z,73.50
2023-02-23T20:00:57.369Z,73.62
2023-02-23T20:03:28.229Z,73.75
2023-02-23T20:05:55.902Z,73.59
2023-02-23T20:08:26.301Z,73.55
2023-02-23T20:10:53.090Z,73.67
2023-02-23T20:13:21.322Z,74.13
2023-02-23T20:15:47.847Z,74.40
2023-02-23T20:18:14.369Z,73.90
2023-02-23T20:20:41.002Z,73.90
2023-02-23T20:23:08.775Z,72.87
2023-02-23T20:25:36.034Z,73.45
2023-02-23T20:28:03.109Z,72.56
2023-02-23T20:30:29.756Z,72.59
2023-02-23T20:32:57.239Z,73.05
2023-02-23T20:35:26.117Z,73.01
2023-02-23T20:37:55.769Z,72.61
2023-02-23T20:40:23.140Z,73.23
2023-02-23T20:42:51.093Z,72.71
2023-02-23T20:45:20.459Z,72.98
2023-02-23T20:47:47.127Z,72.57
2023-02-23T20:50:14.341Z,72.15
2023-02-23T20:52:41.582Z,72.21
2023-02-23T20:55:09.176Z,72.40
2023-02-23T20:57:36.007Z,72.12
2023-02-23T21:00:09.449Z,72.24
2023-02-23T21:02:36.703Z,72.38
2023-02-23T21:05:03.923Z,72.56
2023-02-23T21:07:30.630Z,72.25
2023-02-23T21:10:00.870Z,72.09
2023-02-23T21:12:27.670Z,72.08
2023-02-23T21:14:54.223Z,72.31
2023-02-23T21:17:21.887Z,72.13
2023-02-23T21:19:48.382Z,72.47
2023-02-23T21:22:16.420Z,72.63
2023-02-23T21:24:43.875Z,72.57
2023-02-23T21:27:12.816Z,72.79
2023-02-23T21:29:40.270Z,73.06
2023-02-23T21:32:08.881Z,72.55
2023-02-23T21:34:35.734Z,72.74
2023-02-23T21:37:02.235Z,72.58
2023-02-23T21:39:29.389Z,72.94
2023-02-23T21:41:56.411Z,73.01
2023-02-23T21:44:22.977Z,72.48
2023-02-23T21:46:51.428Z,72.58
2023-02-23T21:49:19.057Z,72.52
2023-02-23T21:51:45.678Z,72.62
2023-02-23T21:54:12.206Z,72.70
2023-02-23T21:56:38.738Z,72.52
2023-02-23T21:59:08.184Z,73.04
2023-02-23T22:01:36.237Z,72.74
2023-02-23T22:04:04.663Z,72.96
2023-02-23T22:06:36.822Z,72.91
2023-02-23T22:09:05.187Z,73.03
2023-02-23T22:11:35.628Z,72.43
2023-02-23T22:14:02.163Z,73.07
2023-02-23T22:16:35.825Z,73.08
2023-02-23T22:19:04.326Z,73.04
2023-02-23T22:21:33.420Z,72.69
2023-02-23T22:24:01.618Z,73.23
2023-02-23T22:26:30.260Z,73.23
2023-02-23T22:28:56.738Z,73.26
2023-02-23T22:31:23.551Z,72.88
2023-02-23T22:33:50.462Z,73.47
2023-02-23T22:36:18.554Z,73.04
2023-02-23T22:38:45.638Z,73.05
2023-02-23T22:41:13.047Z,72.98
2023-02-23T22:43:41.082Z,73.28
2023-02-23T22:46:08.006Z,73.18
2023-02-23T22:48:35.593Z,73.12
2023-02-23T22:51:02.183Z,73.09
2023-02-23T22:53:28.995Z,73.54
2023-02-23T22:55:56.341Z,72.99
2023-02-23T22:58:26.233Z,73.43
2023-02-23T23:01:03.871Z,73.62
2023-02-23T23:03:35.756Z,73.46
2023-02-23T23:06:04.777Z,73.33
2023-02-23T23:08:36.473Z,73.53
2023-02-23T23:11:09.336Z,73.53
2023-02-23T23:13:44.528Z,73.11
2023-02-23T23:16:25.580Z,73.62
2023-02-23T23:19:12.068Z,73.83
2023-02-23T23:21:40.965Z,73.63
2023-02-23T23:24:08.781Z,73.96
2023-02-23T23:26:39.598Z,73.67
2023-02-23T23:29:10.142Z,73.75
2023-02-23T23:31:37.594Z,73.98
2023-02-23T23:34:06.528Z,73.29
2023-02-23T23:36:48.806Z,73.35
2023-02-23T23:39:21.052Z,73.56
2023-02-23T23:41:48.676Z,74.01
2023-02-23T23:44:23.861Z,73.96
2023-02-23T23:46:50.870Z,73.81
2023-02-23T23:49:19.548Z,73.10
2023-02-23T23:51:49.925Z,73.38
2023-02-23T23:54:22.854Z,73.50
2023-02-23T23:56:50.185Z,73.71
2023-02-23T23:59:21.821Z,73.50
